KMCO/MCO METAR and TAF weather

Enter ICAO airport designator
Station Type Date Time Source
KMCO METAR 2019/06/27 09:53 UTC NOAA

KMCO 270953Z 36005KT 10SM FEW040 FEW250 24/22 A3009 RMK AO2 SLP189 T02440217 $


Station Type Date Time Source
KMCO Decoded METAR 2019/06/27 09:53 UTC NOAA

ORLANDO INTERNATIONAL AIRPORT , FL, United States (KMCO) 28-25N 81-20W 29M
Jun 27, 2019 - 05:53 AM EDT / 2019.06.27 0953 UTC
Wind: from the N (360 degrees) at 6 MPH (5 KT):0
Visibility: 10 mile(s):0
Sky conditions: mostly clear
Temperature: 75.9 F (24.4 C)
Dew Point: 71.1 F (21.7 C)
Relative Humidity: 84%
Pressure (altimeter): 30.09 in. Hg (1018 hPa)
ob: KMCO 270953Z 36005KT 10SM FEW040 FEW250 24/22 A3009 RMK AO2 SLP189 T02440217
cycle: 10

Station Type Date Time Source
KMCO TAF 2019/06/27 09:52 UTC NOAA

TAF
AMD KMCO 270850Z 2709/2812 VRB03KT P6SM FEW250
FM271500 03006KT P6SM FEW040
FM271900 07010KT P6SM SCT050 SCT250
FM280000 09007KT P6SM FEW050 SCT250

Example: see airport list